Nearby Airport METAR Reports

 

KVSF - Springfield, Vermont, USA
Distance from station: WSW 8mi, 12km
Updated: 6:43pm
Light snow, Mist, Overcast
Light snow, Mist, Overcast
 Wind from calm
Wind: Calm
Temperature: 28°F , -2°C
Dew Point: 28°F , -2°C
Humidity: 100%
Barometer: 29.36 inHg , 994.2 hPa
Summary: Light snow, Mist
Clouds: Overcast
Visibility: 2 miles , 3 km
Cloud details: Overcast 2700 ft
2017/12/12 23:43 KVSF 122343Z AUTO 00000KT 2SM -SN BR OVC027 M02/M02 A2936 RMK AO2 P0002 T10221022
KLEB - Lebanon, New Hampshire, USA
Distance from station: N 18mi, 29km
Updated: 6:29pm
Light snow, Mist, Overcast
Light snow, Mist, Overcast
 Wind from calm
Wind: Calm
Temperature: 28°F , -2°C
Dew Point: 27°F , -3°C
Humidity: 93%
Barometer: 29.37 inHg , 994.6 hPa
Summary: Light snow, Mist
Clouds: Overcast
Visibility: 1 mile , 2 km
Cloud details: Overcast 800 ft
2017/12/12 23:29 KLEB 122329Z 00000KT 1SM -SN BR VV008 M02/M03 A2937 RMK AO2 P0004 T10221028
KRUT - Rutland State, Vermont, USA
Distance from station: WNW 31mi, 50km
Updated: 6:38pm
Light snow, Mist, Overcast
Light snow, Mist, Overcast
 Wind from SE
Wind: SE 5 mph , 7 km/h
Temperature: 30°F , -1°C
Wind Chill: 25°F , -4°C
Dew Point: 28°F , -2°C
Humidity: 93%
Barometer: 29.36 inHg , 994.2 hPa
Summary: Light snow, Mist
Clouds: Overcast
Visibility: 1 3/4 miles , 2.8 km
Cloud details: Few Clouds 400 ft
Overcast 1500 ft
2017/12/12 23:38 KRUT 122338Z AUTO 13004KT 1 3/4SM -SN BR FEW004 OVC015 M01/M02 A2936 RMK AO2 P0000 FZRANO $
 
KEEN - Keene/Dillant, New Hampshire, USA
Distance from station: S 34mi, 55km
Updated: 6:46pm
Light snow, Mist, Overcast
Light snow, Mist, Overcast
 Wind from N
Wind: N 6 mph , 9 km/h
Temperature: 30°F , -1°C
Wind Chill: 24°F , -4°C
Dew Point: 30°F , -1°C
Humidity: 100%
Barometer: 29.35 inHg , 993.9 hPa
Summary: Light snow, Mist
Clouds: Overcast
Visibility: 3 miles , 5 km
Cloud details: Partly cloudy 400 ft
Mostly cloudy 800 ft
Overcast 1500 ft
2017/12/12 23:46 KEEN 122346Z AUTO 36005KT 3SM -SN BR SCT004 BKN008 OVC015 M01/M01 A2935 RMK AO2 P0000 FZRANO
K1P1 - Plymouth, New Hampshire, USA
Distance from station: NE 42mi, 67km
Updated: 6:35pm
Snow, Overcast
Snow, Overcast
 Wind from calm
Wind: Calm
Temperature: 25°F , -4°C
Dew Point: 25°F , -4°C
Humidity: 100%
Barometer: 29.36 inHg , 994.2 hPa
Summary: Snow
Clouds: Overcast
Visibility: 1 1/4 miles , 2 km
Cloud details: Overcast 500 ft
2017/12/12 23:35 K1P1 122335Z AUTO 00000KT 1 1/4SM SN OVC005 M04/M04 A2936 RMK AO2 P0005 T10371042
KAFN - Jaffrey, New Hampshire, USA
Distance from station: SSE 44mi, 70km
Updated: 6:39pm
Light snow, Mist, Overcast
Light snow, Mist, Overcast
 Wind from calm
Wind: Calm
Temperature: 28°F , -2°C
Dew Point: 28°F , -2°C
Humidity: 100%
Barometer: 29.32 inHg , 992.9 hPa
Summary: Light snow, Mist
Clouds: Overcast
Visibility: 2 miles , 3 km
Cloud details: Overcast 1600 ft
2017/12/12 23:39 KAFN 122339Z AUTO 00000KT 2SM -SN BR OVC016 M02/M02 A2932 RMK AO2 P0004 T10171017
 
KCON - Concord, New Hampshire, USA
Distance from station: ESE 45mi, 73km
Updated: 6:42pm
Overcast
Overcast
 Wind from WNW
Wind: WNW 9 mph , 15 km/h
Temperature: 28°F , -2°C
Wind Chill: 19°F , -7°C
Dew Point: 27°F , -3°C
Humidity: 93%
Barometer: 29.36 inHg , 994.2 hPa
Clouds: Overcast
Visibility: 9 miles , 14 km
Cloud details: Overcast 600 ft
2017/12/12 23:42 KCON 122342Z AUTO 30008KT 9SM UP OVC006 M02/M03 A2936 RMK AO2 UPB33 P0000 T10171033
KLCI - Laconia Muni, New Hampshire, USA
Distance from station: ENE 49mi, 80km
Updated: 6:29pm
Light snow, Overcast
Light snow, Overcast
 Wind from ENE
Wind: ENE 9 mph , 15 km/h
Temperature: 27°F , -3°C
Wind Chill: 18°F , -8°C
Dew Point: 25°F , -4°C
Humidity: 93%
Barometer: 29.35 inHg , 993.9 hPa
Summary: Light Snow
Clouds: Overcast
Visibility: 8 miles , 13 km
Cloud details: Mostly cloudy 500 ft
Overcast 1700 ft
2017/12/12 23:29 KLCI 122329Z AUTO 06008KT 8SM -SN BKN005 OVC017 M03/M04 A2935 RMK AO2 CIG 005V010 P0001 FZRANO
KDDH - Bennington, Vermont, USA
Distance from station: SW 55mi, 89km
Updated: 5:54pm
Light snow, Mist, Overcast
Light snow, Mist, Overcast
 Wind from W
Wind: W 7 mph , 11 km/h
Temperature: 34°F , 1°C
Wind Chill: 28°F , -2°C
Dew Point: 30°F , -1°C
Humidity: 87%
Barometer: 29.38 inHg , 994.9 hPa
Summary: Light snow, Mist
Clouds: Overcast
Visibility: 2 1/2 miles , 4 km
Cloud details: Mostly cloudy 700 ft
Overcast 1100 ft
2017/12/12 22:54 KDDH 122254Z AUTO 26006KT 2 1/2SM -SN BR BKN007 OVC011 01/M01 A2938 RMK AO2 CIG 005V010 SLP957 P0003 T00061011
 
K6B0 - Middlebury, Vermont, USA
Distance from station: NW 56mi, 90km
Updated: 6:35pm
Light snow, Overcast
Light snow, Overcast
 Wind from calm
Wind: Calm
Temperature: 32°F , 0°C
Dew Point: 32°F , 0°C
Humidity: 100%
Barometer: 29.37 inHg , 994.6 hPa
Summary: Light Snow
Clouds: Overcast
Visibility: 2 1/2 miles , 4 km
Cloud details: Mostly cloudy 400 ft
Overcast 800 ft
2017/12/12 23:35 K6B0 122335Z AUTO 00000KT 2 1/2SM -SN BKN004 OVC008 00/00 A2937 RMK AO2 P0001 T00001003
KMHT - Manchester, New Hampshire, USA
Distance from station: ESE 56mi, 90km
Updated: 6:36pm
Light freezing, Rain, Mist, Overcast
Light freezing, Rain, Mist, Overcast
 Wind from WNW
Wind: WNW 9 mph , 15 km/h
Temperature: 30°F , -1°C
Wind Chill: 22°F , -6°C
Dew Point: 28°F , -2°C
Humidity: 93%
Barometer: 29.34 inHg , 993.6 hPa
Summary: Light freezing, Rain, Mist
Clouds: Overcast
Visibility: 6 miles , 10 km
Cloud details: Overcast 400 ft
2017/12/12 23:36 KMHT 122336Z 30008KT 6SM -FZRA BR OVC004 M01/M02 A2934 RMK AO2 FZRAB32 P0000 I1000 T10061017
KORE - Orange, Massachusetts, USA
Distance from station: S 56mi, 90km
Updated: 6:41pm
Light snow, Mist, Overcast
Light snow, Mist, Overcast
 Wind from calm
Wind: Calm
Temperature: 32°F , 0°C
Dew Point: 32°F , 0°C
Humidity: 100%
Barometer: 29.34 inHg , 993.6 hPa
Summary: Light snow, Mist
Clouds: Overcast
Visibility: 3 miles , 5 km
Cloud details: Mostly cloudy 600 ft
Overcast 4200 ft
2017/12/12 23:41 KORE 122341Z AUTO 00000KT 3SM -SN BR BKN006 OVC042 00/00 A2934 RMK AO2 P0000 T00000000 TSNO
 
KMPV - Montpelier/Barre, Vermont, USA
Distance from station: N 58mi, 93km
Updated: 6:35pm
Light snow, Mist, Overcast
Light snow, Mist, Overcast
 Wind from calm
Wind: Calm
Temperature: 27°F , -3°C
Dew Point: 27°F , -3°C
Humidity: 100%
Barometer: 29.38 inHg , 994.9 hPa
Summary: Light snow, Mist
Clouds: Overcast
Visibility: 1 1/2 miles , 2.4 km
Cloud details: Overcast 1600 ft
2017/12/12 23:35 KMPV 122335Z AUTO 00000KT 1 1/2SM -SN BR OVC016 M03/M03 A2938 RMK AO2 P0003 T10281028
KASH - Nashua/Boire Fld, New Hampshire, USA
Distance from station: SE 59mi, 95km
Updated: 6:41pm
Light freezing, Rain, Mist, Overcast
Light freezing, Rain, Mist, Overcast
 Wind from NNW
Wind: NNW 7 mph , 11 km/h
Temperature: 32°F , 0°C
Wind Chill: 25°F , -4°C
Dew Point: 30°F , -1°C
Humidity: 93%
Barometer: 29.35 inHg , 993.9 hPa
Summary: Light freezing, Rain, Mist
Clouds: Overcast
Visibility: 3 miles , 5 km
Cloud details: Partly cloudy 400 ft
Overcast 900 ft
2017/12/12 23:41 KASH 122341Z 33006KT 3SM -FZRA BR SCT004 OVC009 00/M01 A2935 RMK AO2 UPB13E23FZRAB23 CIG 009V013 P0003
KAQW - North Adams, Massachusetts, USA
Distance from station: SW 62mi, 99km
Updated: 6:09pm
Light snow, Mist, Overcast
Light snow, Mist, Overcast
 Wind from W
Wind: W 8 mph , 13 km/h, Gust: 17 mph , 28 km/h
Temperature: 34°F , 1°C
Wind Chill: 27°F , -3°C
Dew Point: 30°F , -1°C
Humidity: 87%
Barometer: 29.39 inHg , 995.3 hPa
Summary: Light snow, Mist
Clouds: Overcast
Visibility: 5 miles , 8 km
Cloud details: Few Clouds 900 ft
Overcast 1900 ft
2017/12/12 23:09 KAQW 122309Z AUTO 27007G15KT 5SM -SN BR FEW009 OVC019 01/M01 A2939 RMK AO2 P0000 T00061011
 
KGFL - Glens Falls, New York, USA
Distance from station: W 63mi, 101km
Updated: 6:30pm
Mist, Overcast
Mist, Overcast
 Wind from WSW
Wind: WSW 6 mph , 9 km/h
Temperature: 32°F , 0°C
Wind Chill: 26°F , -3°C
Dew Point: 32°F , 0°C
Humidity: 100%
Barometer: 29.40 inHg , 995.6 hPa
Summary: Mist
Clouds: Overcast
Visibility: 3 miles , 5 km
Cloud details: Partly cloudy 1800 ft
Mostly cloudy 2800 ft
Overcast 4200 ft
2017/12/12 23:30 KGFL 122330Z AUTO 24005KT 3SM BR SCT018 BKN028 OVC042 00/00 A2940 RMK AO2 T00000000
KFIT - Fitchburg, Massachusetts, USA
Distance from station: SSE 65mi, 105km
Updated: 6:00pm
Light rain, Mist, Overcast
Light rain, Mist, Overcast
 Wind from calm
Wind: Calm
Temperature: 36°F , 2°C
Dew Point: 36°F , 2°C
Humidity: 100%
Barometer: 29.35 inHg , 993.9 hPa
Summary: Light rain, Mist
Clouds: Overcast
Visibility: 4 miles , 6 km
Cloud details: Partly cloudy 600 ft
Mostly cloudy 3200 ft
Overcast 3900 ft
2017/12/12 23:00 KFIT 122300Z AUTO 00000KT 4SM -RA BR SCT006 BKN032 OVC039 02/02 A2935 RMK AO2 P0001 T00220017
KDAW - Rochester, New Hampshire, USA
Distance from station: E 73mi, 118km
Updated: 6:44pm
Overcast
Overcast
 Wind from NW
Wind: NW 8 mph , 13 km/h
Temperature: 28°F , -2°C
Wind Chill: 20°F , -7°C
Dew Point: 28°F , -2°C
Humidity: 100%
Barometer: 29.32 inHg , 992.9 hPa
Clouds: Overcast
Visibility: 10 miles , 16 km
Cloud details: Overcast 400 ft
2017/12/12 23:44 KDAW 122344Z AUTO 31007KT 10SM OVC004 M02/M02 A2932 RMK AO2 UPB20E27FZRAB27E38 I1001 T10171017 PNO $
 
K1V4 - St. Johnsbury, Vermont, USA
Distance from station: NNE 74mi, 119km
Updated: 5:54pm

 
Temperature: 28°F , -2°C
Dew Point: 28°F , -2°C
Humidity: 100%
Barometer: 29.36 inHg , 994.2 hPa
2017/12/12 22:54 K1V4 122254Z AUTO M02/M02 A2936 RMK AO1 SLP958 P0009 T10221022
KLWM - Lawrence, Massachusetts, USA
Distance from station: SE 77mi, 124km
Updated: 5:54pm
Mist, Overcast
Mist, Overcast
 Wind from NNE
Wind: NNE 6 mph , 9 km/h
Temperature: 36°F , 2°C
Wind Chill: 31°F , -1°C
Dew Point: 34°F , 1°C
Humidity: 93%
Barometer: 29.34 inHg , 993.6 hPa
Summary: Mist
Clouds: Overcast
Visibility: 5 miles , 8 km
Cloud details: Overcast 300 ft
2017/12/12 22:54 KLWM 122254Z 03005KT 5SM BR OVC003 02/01 A2934 RMK AO2 SLP938 T00220006

free counter page views since 4/29/2009